Terminal Aerodrome Forecast
Issued by NWS

Home | Current Version | Previous Version | Text Only | Print | Product List | Glossary Off
Versions: 1 2 3 4 5 6 7 8 9 10 11 12 13 14 15 16

000
FTUS44 KTSA 281720
TAFRVS
TAF
KRVS 281720Z 2818/2918 16007KT P6SM VCSH BKN150
     FM290100 16006KT P6SM BKN120
      TEMPO 2905/2909 5SM -TSRA BKN050CB
     FM291500 20006KT P6SM BKN150=

USA.gov is the U.S. government's official web portal to all federal, state and local government web resources and services.